Terminal Aerodrome Forecast
Issued by NWS Jackson, MS

Home | Current Version | Previous Version | Text Only | Print | Product List | Glossary On
Versions: 1 2 3 4 5 6 7 8 9 10 11 12 13 14 15
000
FTUS44 KJAN 211100 RRA
TAFMEI
TAF
KMEI 211143Z 2112/2212 15003KT 5SM BR SCT005
     FM211400 19006KT P6SM SCT030 SCT250
     FM220000 18003KT P6SM FEW050 SCT120
     FM221000 VRB03KT 5SM BR BKN010 OVC100=

USA.gov is the U.S. government's official web portal to all federal, state and local government web resources and services.